Time;durP1;ratioP1;P1;durP2;ratioP2;P2;SDS_P1;SDS_P2;PMS_P1;PMS_P2;Temp;Humidity;BMP_temperature;BMP_pressure;BME280_temperature;BME280_humidity;BME280_pressure;Samples;Min_cycle;Max_cycle;Signal;HPM_P1;HPM_P2
2023/04/30 00:01:59;;;;;;;9.63;2.10;;;6.80;99.90;;;;;;5024876;28;20135;-70
2023/04/30 00:04:24;;;;;;;9.18;2.25;;;6.80;99.90;;;;;;5026556;28;20060;-70
2023/04/30 00:06:50;;;;;;;7.83;2.40;;;6.70;99.90;;;;;;5023688;28;20041;-70
2023/04/30 00:09:16;;;;;;;7.67;2.60;;;6.60;99.90;;;;;;5023745;28;20075;-70
2023/04/30 00:11:42;;;;;;;8.33;2.30;;;6.60;99.90;;;;;;5037957;28;20049;-70
2023/04/30 00:14:08;;;;;;;6.13;2.17;;;6.60;99.90;;;;;;5033364;28;20409;-70
2023/04/30 00:16:34;;;;;;;8.45;2.50;;;6.60;99.90;;;;;;5046092;28;20072;-70
2023/04/30 00:19:00;;;;;;;9.87;2.70;;;6.50;99.90;;;;;;5022060;28;20158;-70
2023/04/30 00:21:26;;;;;;;8.53;3.03;;;6.50;99.90;;;;;;5039340;28;20033;-70
2023/04/30 00:23:52;;;;;;;12.82;3.35;;;6.50;99.90;;;;;;5025220;28;20116;-70
2023/04/30 00:26:17;;;;;;;10.13;2.83;;;6.40;99.90;;;;;;5048138;28;20123;-70
2023/04/30 00:28:43;;;;;;;8.07;2.80;;;6.40;99.90;;;;;;5047138;28;20041;-70
2023/04/30 00:31:09;;;;;;;10.67;3.10;;;6.30;99.90;;;;;;5041414;28;20033;-70
2023/04/30 00:33:35;;;;;;;11.77;3.07;;;6.30;99.90;;;;;;5042204;28;20056;-70
2023/04/30 00:36:00;;;;;;;11.33;3.17;;;6.30;99.90;;;;;;5027777;28;20045;-70
2023/04/30 00:38:26;;;;;;;11.87;3.30;;;6.20;99.90;;;;;;5041806;28;20037;-70
2023/04/30 00:40:52;;;;;;;7.33;3.00;;;6.20;99.90;;;;;;5035301;28;20550;-70
2023/04/30 00:43:18;;;;;;;13.77;4.30;;;6.20;99.90;;;;;;5045154;28;20067;-70
2023/04/30 00:45:44;;;;;;;7.50;3.87;;;6.10;99.90;;;;;;5029274;28;20045;-70
2023/04/30 00:48:09;;;;;;;10.43;3.93;;;6.10;99.90;;;;;;5027559;28;20067;-70
2023/04/30 00:50:35;;;;;;;10.80;3.37;;;6.10;99.90;;;;;;5045323;28;20116;-70
2023/04/30 00:53:02;;;;;;;11.83;4.07;;;6.10;99.90;;;;;;5025543;28;20361;-70
2023/04/30 00:55:28;;;;;;;11.93;4.10;;;6.00;99.90;;;;;;5020395;28;20280;-70
2023/04/30 00:57:54;;;;;;;8.25;4.10;;;6.00;99.90;;;;;;5028110;28;20090;-70
2023/04/30 01:00:20;;;;;;;14.07;3.90;;;6.00;99.90;;;;;;5020830;28;20540;-70
2023/04/30 01:02:47;;;;;;;14.77;4.03;;;6.00;99.90;;;;;;5045136;28;20041;-70
2023/04/30 01:05:12;;;;;;;7.45;4.13;;;5.90;99.90;;;;;;5045129;28;20029;-70
2023/04/30 01:07:43;;;;;;;7.33;3.67;;;6.00;99.90;;;;;;5034667;28;20037;-70
2023/04/30 01:10:11;;;;;;;13.27;4.10;;;6.00;99.90;;;;;;5047461;28;20111;-70
2023/04/30 01:12:38;;;;;;;13.77;4.00;;;5.90;99.90;;;;;;5027820;28;20045;-70
2023/04/30 01:15:18;;;;;;;9.55;3.90;;;5.90;99.90;;;;;;5023398;28;20033;-70
2023/04/30 01:17:52;;;;;;;11.85;4.65;;;5.90;99.90;;;;;;5029267;28;20037;-70
2023/04/30 01:20:18;;;;;;;9.68;4.53;;;5.90;99.90;;;;;;5030604;28;20073;-70
2023/04/30 01:23:16;;;;;;;13.95;5.20;;;5.90;99.90;;;;;;5029338;28;20319;-70
2023/04/30 01:25:54;;;;;;;14.40;5.55;;;5.90;99.90;;;;;;5011170;28;20060;-70
2023/04/30 01:28:20;;;;;;;11.50;4.93;;;5.90;99.90;;;;;;5020146;28;20045;-70
2023/04/30 01:30:46;;;;;;;12.68;4.85;;;5.90;99.90;;;;;;5034404;28;20072;-70
2023/04/30 01:33:12;;;;;;;13.98;4.60;;;6.00;99.90;;;;;;5032252;28;20036;-70
2023/04/30 01:35:52;;;;;;;9.77;4.35;;;6.00;99.90;;;;;;5034141;28;20128;-70
2023/04/30 01:38:36;;;;;;;10.65;4.30;;;6.00;99.90;;;;;;5050799;28;20037;-70
2023/04/30 01:41:14;;;;;;;13.18;4.63;;;6.10;99.90;;;;;;5049725;28;20041;-70
2023/04/30 01:44:05;;;;;;;11.88;4.80;;;6.10;99.90;;;;;;5042899;28;20348;-70
2023/04/30 01:46:31;;;;;;;11.90;4.82;;;6.20;99.90;;;;;;5050654;28;20056;-70
2023/04/30 01:49:14;;;;;;;8.63;4.20;;;6.20;99.90;;;;;;5033613;28;20670;-70
2023/04/30 01:51:42;;;;;;;9.25;4.70;;;6.30;99.90;;;;;;5046687;28;20041;-70
2023/04/30 01:54:38;;;;;;;9.40;4.60;;;6.30;99.90;;;;;;5031426;28;21165;-70
2023/04/30 01:57:06;;;;;;;9.65;4.88;;;6.30;99.90;;;;;;5035368;28;20402;-70
2023/04/30 01:59:35;;;;;;;12.65;4.45;;;6.40;99.90;;;;;;5026267;28;20096;-70
2023/04/30 02:02:02;;;;;;;8.75;4.25;;;6.40;99.90;;;;;;5044614;28;20094;-70
2023/04/30 02:04:27;;;;;;;10.00;4.65;;;6.40;99.90;;;;;;5026160;28;20073;-70
2023/04/30 02:06:53;;;;;;;12.53;4.77;;;6.50;99.90;;;;;;5047985;28;20453;-70
2023/04/30 02:09:19;;;;;;;9.40;4.50;;;6.50;99.90;;;;;;5024607;28;20048;-70
2023/04/30 02:11:45;;;;;;;9.10;4.47;;;6.50;99.90;;;;;;5031398;28;20044;-70
2023/04/30 02:14:10;;;;;;;12.30;4.43;;;6.50;99.90;;;;;;5057630;28;20060;-70
2023/04/30 02:16:36;;;;;;;8.40;4.00;;;6.60;99.90;;;;;;5038892;28;20045;-70
2023/04/30 02:19:02;;;;;;;16.10;4.57;;;6.50;99.90;;;;;;5031728;28;20041;-70
2023/04/30 02:21:27;;;;;;;12.57;4.43;;;6.60;99.90;;;;;;5030046;28;20033;-70
2023/04/30 02:23:53;;;;;;;11.30;4.53;;;6.60;99.90;;;;;;5027927;28;20041;-70
2023/04/30 02:26:20;;;;;;;7.13;3.90;;;6.50;99.90;;;;;;5047100;28;20036;-70
2023/04/30 02:28:46;;;;;;;13.52;4.57;;;6.50;99.90;;;;;;5041187;28;20056;-70
2023/04/30 02:31:11;;;;;;;14.67;4.63;;;6.50;99.90;;;;;;5026788;28;20037;-70
2023/04/30 02:33:37;;;;;;;9.83;4.77;;;6.50;99.90;;;;;;5026148;28;20136;-71
2023/04/30 02:36:03;;;;;;;9.13;3.90;;;6.50;99.90;;;;;;5023313;28;20497;-70
2023/04/30 02:38:29;;;;;;;10.70;4.13;;;6.50;99.90;;;;;;5031484;28;20041;-70
2023/04/30 02:40:55;;;;;;;8.20;3.80;;;6.50;99.90;;;;;;5030119;28;20278;-70
2023/04/30 02:43:20;;;;;;;10.40;4.20;;;6.40;99.90;;;;;;5029549;28;20044;-70
2023/04/30 02:45:46;;;;;;;9.40;3.93;;;6.40;99.90;;;;;;5029758;28;20037;-71
2023/04/30 02:48:12;;;;;;;13.87;4.60;;;6.40;99.90;;;;;;5024671;28;20045;-70
2023/04/30 02:50:38;;;;;;;9.00;3.90;;;6.40;99.90;;;;;;5047438;28;20045;-70
2023/04/30 02:53:03;;;;;;;8.27;3.90;;;6.30;99.90;;;;;;5046895;28;20118;-70
2023/04/30 02:55:30;;;;;;;9.27;4.60;;;6.30;99.90;;;;;;5027697;28;20040;-70
2023/04/30 02:57:55;;;;;;;11.60;4.57;;;6.30;99.90;;;;;;5029426;28;20049;-70
2023/04/30 03:00:21;;;;;;;8.07;4.20;;;6.30;99.90;;;;;;5042102;28;20059;-70
2023/04/30 03:02:47;;;;;;;10.15;4.57;;;6.20;99.90;;;;;;5048565;28;20107;-70
2023/04/30 03:05:14;;;;;;;13.37;5.00;;;6.20;99.90;;;;;;5040986;28;20456;-70
2023/04/30 03:07:40;;;;;;;9.05;4.47;;;6.20;99.90;;;;;;5048602;28;20094;-70
2023/04/30 03:10:07;;;;;;;9.13;4.70;;;6.10;99.90;;;;;;5048724;28;20114;-70
2023/04/30 03:12:32;;;;;;;9.20;4.85;;;6.10;99.90;;;;;;5032173;28;20041;-70
2023/04/30 03:14:58;;;;;;;13.03;5.00;;;6.00;99.90;;;;;;5030589;28;20036;-70
2023/04/30 03:17:24;;;;;;;10.00;4.30;;;6.00;99.90;;;;;;5030576;28;20520;-70
2023/04/30 03:19:50;;;;;;;10.95;4.75;;;5.90;99.90;;;;;;5024405;28;20382;-70
2023/04/30 03:22:18;;;;;;;11.47;4.53;;;5.80;99.90;;;;;;5027505;28;20324;-70
2023/04/30 03:24:44;;;;;;;9.73;4.40;;;5.70;99.90;;;;;;5028196;28;20139;-70
2023/04/30 03:27:10;;;;;;;10.63;4.35;;;5.70;99.90;;;;;;5021523;28;20044;-70
2023/04/30 03:29:36;;;;;;;9.87;4.70;;;5.60;99.90;;;;;;5031344;28;20040;-70
2023/04/30 03:32:01;;;;;;;8.33;4.00;;;5.60;99.90;;;;;;5025761;28;20174;-70
2023/04/30 03:34:27;;;;;;;9.73;4.27;;;5.50;99.90;;;;;;5042052;28;20047;-70
2023/04/30 03:36:53;;;;;;;8.77;4.13;;;5.50;99.90;;;;;;5047028;28;20428;-70
2023/04/30 03:39:18;;;;;;;11.03;4.40;;;5.40;99.90;;;;;;5047227;28;20032;-70
2023/04/30 03:41:44;;;;;;;11.53;4.00;;;5.30;99.90;;;;;;5047800;28;20541;-70
2023/04/30 03:44:14;;;;;;;10.80;4.10;;;5.30;99.90;;;;;;5041623;28;20121;-70
2023/04/30 03:46:43;;;;;;;16.55;5.07;;;5.30;99.90;;;;;;5031505;28;20147;-70
2023/04/30 03:49:09;;;;;;;9.70;3.85;;;5.20;99.90;;;;;;5045862;28;20041;-70
2023/04/30 03:51:38;;;;;;;10.13;4.72;;;5.10;99.90;;;;;;5021534;28;20040;-70
2023/04/30 03:54:07;;;;;;;8.85;4.47;;;5.10;99.90;;;;;;5030018;28;20611;-70
2023/04/30 03:56:34;;;;;;;12.23;4.95;;;5.00;99.90;;;;;;5047132;28;20098;-70
2023/04/30 03:59:00;;;;;;;10.65;4.40;;;5.00;99.90;;;;;;5046740;28;20041;-70
2023/04/30 04:01:27;;;;;;;12.57;5.63;;;5.00;99.90;;;;;;5030665;28;20055;-70
2023/04/30 04:03:53;;;;;;;13.55;5.07;;;4.90;99.90;;;;;;5044589;28;20314;-70
2023/04/30 04:06:19;;;;;;;13.87;4.93;;;4.90;99.90;;;;;;5030323;28;20055;-70
2023/04/30 04:08:45;;;;;;;8.85;4.90;;;4.90;99.90;;;;;;5027764;28;20038;-70
2023/04/30 04:11:11;;;;;;;10.07;4.80;;;4.90;99.90;;;;;;5048062;28;20063;-70
2023/04/30 04:13:37;;;;;;;12.00;5.00;;;4.90;99.90;;;;;;5039567;28;20051;-70
2023/04/30 04:16:03;;;;;;;12.18;5.13;;;4.80;99.90;;;;;;5031370;28;20048;-70
2023/04/30 04:18:29;;;;;;;8.93;4.57;;;4.80;99.90;;;;;;5048157;28;20124;-70
2023/04/30 04:20:55;;;;;;;10.00;4.93;;;4.80;99.90;;;;;;5029845;28;20045;-70
2023/04/30 04:23:22;;;;;;;11.25;4.47;;;4.80;99.90;;;;;;5047379;28;20073;-70
2023/04/30 04:25:51;;;;;;;11.30;4.53;;;4.80;99.90;;;;;;5045955;28;20040;-70
2023/04/30 04:28:16;;;;;;;10.38;4.57;;;4.80;99.90;;;;;;5045171;28;20053;-70
2023/04/30 04:30:42;;;;;;;11.77;4.40;;;4.80;99.90;;;;;;5022794;28;20052;-70
2023/04/30 04:33:09;;;;;;;7.33;4.23;;;4.80;99.90;;;;;;5030916;28;20084;-70
2023/04/30 04:35:35;;;;;;;12.05;4.55;;;4.80;99.90;;;;;;5027732;28;20037;-70
2023/04/30 04:38:01;;;;;;;8.63;4.07;;;4.90;99.90;;;;;;5044506;28;20099;-70
2023/04/30 04:40:26;;;;;;;11.70;4.47;;;4.90;99.90;;;;;;5025420;28;20116;-70
2023/04/30 04:42:52;;;;;;;10.20;3.80;;;4.90;99.90;;;;;;5046715;28;20091;-70
2023/04/30 04:45:19;;;;;;;12.47;3.90;;;4.90;99.90;;;;;;5044779;28;20059;-70
2023/04/30 04:47:45;;;;;;;9.13;4.60;;;4.90;99.90;;;;;;5047297;28;20049;-70
2023/04/30 04:50:12;;;;;;;7.95;3.58;;;4.90;99.90;;;;;;5031097;28;20041;-70
2023/04/30 04:52:38;;;;;;;11.00;4.05;;;5.00;99.90;;;;;;5029241;28;20124;-70
2023/04/30 04:55:04;;;;;;;8.30;3.60;;;5.00;99.90;;;;;;5029105;28;20048;-70
2023/04/30 04:57:30;;;;;;;11.70;4.05;;;5.10;99.90;;;;;;5027947;28;20040;-70
2023/04/30 04:59:56;;;;;;;9.63;3.95;;;5.10;99.90;;;;;;5040298;28;20118;-70
2023/04/30 05:02:22;;;;;;;9.50;3.95;;;5.10;99.90;;;;;;5026593;28;20382;-70
2023/04/30 05:04:49;;;;;;;10.80;4.47;;;5.20;99.90;;;;;;5022489;28;20083;-70
2023/04/30 05:07:16;;;;;;;8.60;4.30;;;5.30;99.90;;;;;;5032342;28;20167;-70
2023/04/30 05:09:43;;;;;;;9.35;4.38;;;5.30;99.90;;;;;;5034641;28;20045;-71
2023/04/30 05:12:09;;;;;;;11.82;4.80;;;5.30;99.90;;;;;;5049836;28;20536;-70
2023/04/30 05:14:36;;;;;;;8.00;4.43;;;5.30;99.90;;;;;;5030256;28;20049;-71
2023/04/30 05:17:02;;;;;;;8.25;4.22;;;5.40;99.90;;;;;;5022883;28;20133;-71
2023/04/30 05:19:27;;;;;;;12.63;4.40;;;5.40;99.90;;;;;;5034502;28;20099;-71
2023/04/30 05:21:53;;;;;;;10.17;4.20;;;5.40;99.90;;;;;;5034226;28;20043;-71
2023/04/30 05:24:19;;;;;;;11.40;4.37;;;5.50;99.90;;;;;;5030392;28;20706;-70
2023/04/30 05:26:44;;;;;;;12.17;4.47;;;5.50;99.90;;;;;;5041551;28;20178;-70
2023/04/30 05:29:11;;;;;;;11.77;4.90;;;5.50;99.90;;;;;;5041456;28;20044;-70
2023/04/30 05:31:37;;;;;;;11.00;4.82;;;5.60;99.90;;;;;;5030770;28;20045;-70
2023/04/30 05:34:02;;;;;;;12.93;4.57;;;5.70;99.90;;;;;;5031735;28;20045;-70
2023/04/30 05:36:28;;;;;;;13.23;5.07;;;5.70;99.90;;;;;;5034488;28;20396;-70
2023/04/30 05:38:54;;;;;;;12.53;4.97;;;5.80;99.90;;;;;;5032493;28;20033;-70
2023/04/30 05:41:20;;;;;;;13.33;5.00;;;5.90;99.90;;;;;;5045422;28;20037;-70
2023/04/30 05:43:46;;;;;;;11.88;4.85;;;6.00;99.90;;;;;;5032183;28;20047;-70
2023/04/30 05:46:12;;;;;;;10.57;4.07;;;6.10;99.90;;;;;;5034650;28;20416;-70
2023/04/30 05:48:38;;;;;;;9.35;4.40;;;6.10;99.90;;;;;;5032627;28;20060;-70
2023/04/30 05:51:06;;;;;;;10.38;4.05;;;6.20;99.90;;;;;;5033771;28;20051;-70
2023/04/30 05:53:32;;;;;;;8.88;4.07;;;6.30;99.90;;;;;;5050177;28;20059;-70
2023/04/30 05:55:57;;;;;;;12.38;4.38;;;6.50;99.90;;;;;;5021321;28;20043;-70
2023/04/30 05:58:24;;;;;;;11.40;3.53;;;6.50;99.90;;;;;;5032347;28;20408;-70
2023/04/30 06:00:50;;;;;;;13.45;3.58;;;6.60;99.90;;;;;;5050608;28;20036;-70
2023/04/30 06:03:17;;;;;;;14.15;3.70;;;6.70;99.90;;;;;;5050483;28;20451;-70
2023/04/30 06:05:44;;;;;;;8.05;3.90;;;6.80;99.90;;;;;;5048205;28;20071;-70
2023/04/30 06:08:09;;;;;;;13.55;3.90;;;6.90;99.90;;;;;;5050452;28;20048;-70
2023/04/30 06:10:35;;;;;;;11.43;4.17;;;6.90;99.90;;;;;;5043949;28;20411;-70
2023/04/30 06:13:01;;;;;;;7.80;3.60;;;7.00;99.90;;;;;;5026790;28;20041;-70
2023/04/30 06:15:26;;;;;;;12.03;3.50;;;7.10;99.90;;;;;;5047737;28;20115;-70
2023/04/30 06:17:52;;;;;;;10.00;3.40;;;7.20;99.90;;;;;;5038241;28;20497;-70
2023/04/30 06:20:18;;;;;;;9.17;3.53;;;7.30;99.90;;;;;;5043870;28;20041;-70
2023/04/30 06:22:44;;;;;;;10.50;3.43;;;7.40;99.90;;;;;;5045312;28;20051;-70
2023/04/30 06:25:09;;;;;;;9.10;3.70;;;7.50;99.90;;;;;;5043969;28;20435;-70
2023/04/30 06:27:35;;;;;;;7.97;3.53;;;7.60;99.90;;;;;;5045595;28;20124;-70
2023/04/30 06:30:01;;;;;;;12.20;3.50;;;7.80;99.90;;;;;;5025723;28;20044;-70
2023/04/30 06:32:26;;;;;;;9.83;3.37;;;7.90;99.90;;;;;;5022718;28;20041;-70
2023/04/30 06:34:52;;;;;;;8.90;3.00;;;8.00;99.90;;;;;;5049059;28;20036;-70
2023/04/30 06:37:18;;;;;;;18.90;3.73;;;8.10;99.90;;;;;;5039329;28;20409;-70
2023/04/30 06:39:43;;;;;;;12.53;3.67;;;8.20;99.90;;;;;;5018965;28;20037;-70
2023/04/30 06:42:10;;;;;;;8.00;3.03;;;8.30;99.90;;;;;;5033289;28;20463;-70
2023/04/30 06:44:36;;;;;;;10.50;3.20;;;8.40;99.90;;;;;;5032208;28;20048;-70
2023/04/30 06:47:02;;;;;;;11.77;3.43;;;8.50;99.90;;;;;;5032947;28;20098;-71
2023/04/30 06:49:27;;;;;;;8.77;3.27;;;8.60;99.90;;;;;;5037550;28;20575;-71
2023/04/30 06:51:54;;;;;;;9.00;3.47;;;8.70;99.90;;;;;;5046800;28;20036;-71
2023/04/30 06:54:21;;;;;;;13.07;3.95;;;8.80;99.90;;;;;;5046544;28;20130;-71
2023/04/30 06:56:47;;;;;;;9.13;3.15;;;8.80;99.90;;;;;;5026687;28;20071;-71
2023/04/30 06:59:13;;;;;;;13.07;3.53;;;8.90;99.90;;;;;;5030984;28;20063;-71
2023/04/30 07:01:39;;;;;;;7.77;3.00;;;8.90;99.90;;;;;;5037247;28;20037;-71
2023/04/30 07:04:05;;;;;;;7.35;2.65;;;8.90;99.90;;;;;;5046629;28;20045;-71
2023/04/30 07:06:31;;;;;;;9.90;2.90;;;9.00;99.90;;;;;;5031049;28;20043;-72
2023/04/30 07:08:56;;;;;;;9.13;3.07;;;9.10;99.90;;;;;;5050817;28;20029;-71
2023/04/30 07:11:22;;;;;;;9.03;3.67;;;9.20;99.90;;;;;;5040494;28;20043;-71
2023/04/30 07:13:48;;;;;;;8.57;2.70;;;9.30;99.90;;;;;;5044058;28;20489;-72
2023/04/30 07:16:15;;;;;;;7.17;2.93;;;9.40;99.90;;;;;;5050707;28;20047;-71
2023/04/30 07:18:41;;;;;;;7.85;3.10;;;9.50;99.90;;;;;;5029596;28;20049;-71
2023/04/30 07:21:07;;;;;;;11.50;3.28;;;9.60;99.90;;;;;;5040667;28;20040;-72
2023/04/30 07:23:33;;;;;;;9.07;3.00;;;9.60;99.90;;;;;;5029999;28;20045;-72
2023/04/30 07:25:59;;;;;;;7.40;2.90;;;9.70;99.90;;;;;;5049544;28;20464;-72
2023/04/30 07:28:25;;;;;;;13.53;3.20;;;9.80;99.90;;;;;;5030149;28;20054;-72
2023/04/30 07:30:51;;;;;;;14.30;3.43;;;9.80;99.90;;;;;;5050661;28;20063;-72
2023/04/30 07:33:17;;;;;;;12.32;3.13;;;9.90;99.90;;;;;;5028816;28;20037;-72
2023/04/30 07:35:43;;;;;;;9.67;2.90;;;10.00;99.90;;;;;;5034554;28;20063;-72
2023/04/30 07:38:09;;;;;;;9.13;3.40;;;10.00;99.90;;;;;;5049629;28;20294;-72
2023/04/30 07:40:35;;;;;;;8.73;3.13;;;10.10;99.90;;;;;;5033795;28;20055;-72
2023/04/30 07:43:01;;;;;;;9.57;3.27;;;10.20;99.90;;;;;;5029377;28;20400;-73
2023/04/30 07:45:26;;;;;;;10.10;2.80;;;10.30;99.90;;;;;;5050049;28;20576;-72
2023/04/30 07:47:52;;;;;;;5.40;2.67;;;10.40;99.90;;;;;;5047027;28;20296;-73
2023/04/30 07:50:18;;;;;;;8.83;2.80;;;10.50;99.90;;;;;;5046735;28;20098;-73
2023/04/30 07:52:43;;;;;;;11.70;3.67;;;10.60;99.90;;;;;;5026011;28;20029;-73
2023/04/30 07:55:09;;;;;;;10.27;3.03;;;10.80;99.90;;;;;;5035057;28;20039;-72
2023/04/30 07:57:35;;;;;;;10.67;4.00;;;10.90;99.90;;;;;;5032645;28;20040;-72
2023/04/30 08:00:01;;;;;;;8.73;3.30;;;11.00;99.90;;;;;;5034490;28;20509;-72
2023/04/30 08:02:26;;;;;;;8.50;3.37;;;11.10;99.90;;;;;;5032583;28;20034;-72
2023/04/30 08:04:52;;;;;;;12.27;3.40;;;11.40;99.90;;;;;;5051466;28;20086;-72
2023/04/30 08:07:19;;;;;;;8.33;2.57;;;11.70;99.90;;;;;;5031931;28;20124;-73
2023/04/30 08:09:45;;;;;;;5.95;2.40;;;12.00;99.90;;;;;;5024940;28;20048;-72
2023/04/30 08:12:11;;;;;;;8.83;2.47;;;12.30;99.90;;;;;;5035884;28;20511;-72
2023/04/30 08:14:37;;;;;;;9.83;2.30;;;12.50;99.90;;;;;;5030011;28;20048;-72
2023/04/30 08:17:03;;;;;;;11.53;2.80;;;12.60;99.90;;;;;;5017500;28;20029;-72
2023/04/30 08:19:28;;;;;;;9.53;2.33;;;12.80;99.90;;;;;;5026365;28;20041;-73
2023/04/30 08:21:54;;;;;;;10.23;2.33;;;13.00;99.90;;;;;;5027239;28;20045;-73
2023/04/30 08:24:20;;;;;;;9.47;2.77;;;13.10;99.90;;;;;;5015916;28;20120;-72
2023/04/30 08:26:46;;;;;;;8.03;1.63;;;13.10;99.90;;;;;;5032733;28;20485;-73
2023/04/30 08:29:12;;;;;;;12.03;2.30;;;13.00;99.90;;;;;;5023521;28;20103;-72
2023/04/30 08:31:37;;;;;;;7.13;1.80;;;13.00;99.90;;;;;;5032673;28;20041;-72
2023/04/30 08:34:03;;;;;;;6.23;2.00;;;13.00;99.90;;;;;;5048806;28;20071;-72
2023/04/30 08:36:29;;;;;;;7.67;2.17;;;13.00;99.90;;;;;;5029691;28;20049;-73
2023/04/30 08:38:56;;;;;;;10.83;2.30;;;12.90;99.90;;;;;;5029531;28;20045;-72
2023/04/30 08:41:25;;;;;;;6.63;2.40;;;12.80;99.90;;;;;;5049464;28;20445;-72
2023/04/30 08:43:52;;;;;;;8.67;2.80;;;12.70;99.90;;;;;;5048005;28;20288;-73
2023/04/30 08:46:19;;;;;;;9.93;2.43;;;12.70;99.90;;;;;;5020861;28;20810;-73
2023/04/30 08:48:47;;;;;;;9.17;2.50;;;12.80;99.90;;;;;;5032662;28;20833;-73
2023/04/30 08:51:13;;;;;;;8.80;2.60;;;13.00;99.90;;;;;;5049911;28;20818;-73
2023/04/30 08:53:40;;;;;;;7.47;2.40;;;13.00;99.90;;;;;;5049944;28;20688;-73
2023/04/30 08:56:09;;;;;;;5.83;1.83;;;13.20;99.90;;;;;;5035816;28;20300;-72
2023/04/30 08:58:36;;;;;;;10.17;2.60;;;13.20;99.90;;;;;;5038575;28;20295;-72
2023/04/30 09:01:03;;;;;;;9.43;2.40;;;13.30;99.90;;;;;;5019410;28;20284;-73
2023/04/30 09:03:30;;;;;;;7.40;1.97;;;13.50;99.90;;;;;;5044507;28;20302;-72
2023/04/30 09:05:56;;;;;;;11.80;2.60;;;13.60;99.90;;;;;;5041692;28;20314;-73
2023/04/30 09:08:43;;;;;;;8.57;2.50;;;13.80;99.90;;;;;;5037174;28;20280;-72
2023/04/30 09:11:26;;;;;;;6.40;2.00;;;13.90;98.10;;;;;;5021695;28;20044;-72
2023/04/30 09:13:53;;;;;;;9.43;2.60;;;14.10;99.00;;;;;;5046932;28;20307;-72
2023/04/30 09:16:23;;;;;;;7.50;2.43;;;14.20;99.90;;;;;;5021055;28;20294;-72
2023/04/30 09:18:49;;;;;;;8.40;2.07;;;14.30;99.90;;;;;;5026891;28;20273;-71
2023/04/30 09:21:15;;;;;;;9.83;3.13;;;14.20;98.50;;;;;;5025789;28;20287;-72
2023/04/30 09:23:56;;;;;;;8.07;2.37;;;14.20;99.00;;;;;;5045872;28;20337;-72
2023/04/30 09:26:30;;;;;;;9.13;2.60;;;14.20;99.10;;;;;;5026860;28;20401;-73
2023/04/30 09:28:58;;;;;;;9.32;2.55;;;14.10;99.10;;;;;;5028223;28;20325;-72
2023/04/30 09:31:25;;;;;;;7.97;2.57;;;14.00;98.00;;;;;;5039596;28;20045;-71
2023/04/30 09:33:52;;;;;;;6.47;2.70;;;13.90;98.60;;;;;;5016202;28;20310;-71
2023/04/30 09:36:18;;;;;;;8.57;2.30;;;13.80;99.00;;;;;;5035867;28;20840;-71
2023/04/30 09:38:44;;;;;;;5.80;2.50;;;13.90;99.90;;;;;;5039720;28;20295;-71
2023/04/30 09:41:28;;;;;;;6.73;2.47;;;14.00;99.80;;;;;;5040570;28;20040;-71
2023/04/30 09:43:54;;;;;;;9.13;2.73;;;14.10;94.40;;;;;;5024088;28;20291;-71
2023/04/30 09:46:28;;;;;;;9.63;2.30;;;14.00;96.70;;;;;;5023951;28;20647;-71
2023/04/30 09:49:00;;;;;;;7.57;2.70;;;14.00;98.40;;;;;;5018161;28;20295;-71
2023/04/30 09:51:26;;;;;;;6.10;2.27;;;13.90;96.70;;;;;;5020588;28;20663;-71
2023/04/30 09:53:53;;;;;;;6.43;2.17;;;14.00;97.40;;;;;;5038877;28;20315;-71
2023/04/30 09:56:21;;;;;;;6.77;2.30;;;14.10;98.10;;;;;;5025731;28;20295;-71
2023/04/30 09:58:51;;;;;;;6.00;2.10;;;14.10;96.40;;;;;;5040309;28;20324;-71
2023/04/30 10:01:18;;;;;;;8.77;2.73;;;14.10;96.50;;;;;;5042171;28;20314;-71
2023/04/30 10:03:46;;;;;;;6.07;2.20;;;14.10;97.70;;;;;;5019566;28;20288;-71
2023/04/30 10:06:14;;;;;;;6.00;1.97;;;14.10;97.00;;;;;;5026026;28;20304;-71
2023/04/30 10:08:41;;;;;;;5.83;2.10;;;14.10;97.30;;;;;;5021778;28;20303;-71
2023/04/30 10:11:08;;;;;;;7.20;1.93;;;14.20;97.20;;;;;;5025547;28;20283;-71
2023/04/30 10:14:07;;;;;;;5.53;2.13;;;14.20;96.60;;;;;;5024773;28;20299;-71
2023/04/30 10:16:44;;;;;;;6.10;2.03;;;14.20;95.70;;;;;;5034302;28;20295;-71
2023/04/30 10:19:19;;;;;;;5.50;1.67;;;14.20;97.00;;;;;;5023242;28;20370;-71
2023/04/30 10:21:46;;;;;;;6.00;2.00;;;14.20;97.90;;;;;;5044783;28;20299;-71
2023/04/30 10:24:18;;;;;;;9.97;2.10;;;14.30;96.90;;;;;;5034002;28;20041;-71
2023/04/30 10:26:44;;;;;;;5.67;1.90;;;14.30;98.40;;;;;;5028953;28;20284;-71
2023/04/30 10:29:12;;;;;;;6.57;1.67;;;14.40;98.10;;;;;;5017068;28;20353;-71
2023/04/30 10:31:40;;;;;;;8.27;1.80;;;14.40;98.40;;;;;;5042513;28;20740;-71
2023/04/30 10:34:33;;;;;;;6.37;1.73;;;14.50;97.50;;;;;;5022127;28;20342;-71
2023/04/30 10:37:38;;;;;;;6.27;1.60;;;14.70;96.40;;;;;;5028450;28;20760;-71
2023/04/30 10:40:08;;;;;;;4.57;1.67;;;14.80;96.00;;;;;;5006653;28;20295;-71
2023/04/30 10:42:34;;;;;;;5.47;1.80;;;14.80;95.60;;;;;;5025489;28;20525;-71
2023/04/30 10:45:02;;;;;;;7.13;1.90;;;14.80;96.30;;;;;;5023101;28;20959;-71
2023/04/30 10:47:29;;;;;;;7.13;1.80;;;14.80;95.10;;;;;;5045329;28;20648;-71
2023/04/30 10:50:07;;;;;;;4.23;1.80;;;14.80;96.80;;;;;;5020677;28;20300;-71
2023/04/30 10:52:33;;;;;;;7.37;2.50;;;14.90;97.00;;;;;;5025530;28;20362;-71
2023/04/30 10:55:07;;;;;;;7.33;2.10;;;15.00;96.90;;;;;;5047996;28;20324;-71
2023/04/30 10:57:41;;;;;;;6.80;2.07;;;15.10;96.80;;;;;;5030177;28;20095;-71
2023/04/30 11:00:06;;;;;;;5.63;2.20;;;15.00;92.80;;;;;;5029116;28;20652;-71
2023/04/30 11:02:43;;;;;;;5.50;1.93;;;15.10;95.80;;;;;;5028131;28;20280;-71
2023/04/30 11:05:21;;;;;;;4.20;1.90;;;15.10;95.70;;;;;;5037534;28;20148;-71
2023/04/30 11:07:49;;;;;;;6.20;2.10;;;15.20;96.10;;;;;;5028209;28;20300;-71
2023/04/30 11:10:16;;;;;;;7.13;1.97;;;15.20;95.20;;;;;;5032305;28;20290;-71
2023/04/30 11:12:47;;;;;;;14.20;2.73;;;15.30;95.30;;;;;;5032265;28;20724;-71
2023/04/30 11:15:17;;;;;;;4.60;2.00;;;15.40;92.70;;;;;;5030800;28;20383;-71
2023/04/30 11:17:46;;;;;;;6.67;1.93;;;15.40;93.50;;;;;;5020624;28;20352;-71
2023/04/30 11:20:17;;;;;;;6.50;2.20;;;15.30;95.50;;;;;;5030355;28;20306;-71
2023/04/30 11:22:44;;;;;;;5.07;1.57;;;15.40;97.40;;;;;;5030085;28;20374;-71
2023/04/30 11:25:14;;;;;;;4.27;1.90;;;15.50;96.40;;;;;;5042859;28;20303;-71
2023/04/30 11:27:43;;;;;;;4.50;1.73;;;15.50;95.90;;;;;;5025519;28;20345;-71
2023/04/30 11:30:17;;;;;;;5.50;1.50;;;15.60;92.50;;;;;;5031571;28;20295;-71
2023/04/30 11:32:46;;;;;;;5.93;1.83;;;15.60;93.20;;;;;;5043648;28;20300;-71
2023/04/30 11:35:16;;;;;;;6.20;1.63;;;15.60;95.00;;;;;;5019548;28;20282;-71
2023/04/30 11:37:43;;;;;;;5.40;1.63;;;15.70;94.30;;;;;;5046959;28;20311;-71
2023/04/30 11:40:13;;;;;;;6.70;2.00;;;15.70;94.70;;;;;;5031625;28;20322;-71
2023/04/30 11:42:45;;;;;;;6.10;1.47;;;15.70;95.30;;;;;;5024969;28;20370;-71
2023/04/30 11:45:16;;;;;;;4.33;1.40;;;15.80;91.90;;;;;;5022699;28;20295;-71
2023/04/30 11:47:53;;;;;;;3.53;1.63;;;15.80;93.70;;;;;;5031487;28;20377;-71
2023/04/30 11:50:28;;;;;;;3.60;1.17;;;15.90;94.20;;;;;;5025110;28;21092;-71
2023/04/30 11:52:56;;;;;;;3.17;1.15;;;16.00;94.80;;;;;;5047531;28;20823;-71
2023/04/30 11:55:25;;;;;;;5.10;1.63;;;16.10;95.00;;;;;;5023659;28;20037;-72
2023/04/30 11:57:54;;;;;;;5.33;1.53;;;16.20;95.00;;;;;;5031310;28;20378;-72
2023/04/30 12:00:25;;;;;;;3.90;1.33;;;16.30;95.00;;;;;;5026151;28;20346;-71
2023/04/30 12:02:52;;;;;;;2.83;1.13;;;16.40;90.80;;;;;;5025815;28;20292;-71
2023/04/30 12:05:23;;;;;;;5.20;1.40;;;16.50;86.00;;;;;;5020730;28;20647;-71
2023/04/30 12:07:58;;;;;;;4.40;1.53;;;16.50;85.10;;;;;;5046125;28;20291;-71
2023/04/30 12:10:24;;;;;;;5.53;1.23;;;16.60;84.30;;;;;;5029539;28;20334;-71
2023/04/30 12:12:51;;;;;;;1.57;0.93;;;16.70;83.30;;;;;;5031219;28;20810;-71
2023/04/30 12:15:25;;;;;;;2.43;1.10;;;16.80;80.30;;;;;;5031316;28;20278;-71
2023/04/30 12:17:52;;;;;;;4.40;1.20;;;16.90;78.80;;;;;;5041855;28;20613;-71
2023/04/30 12:20:20;;;;;;;3.97;1.00;;;16.80;81.00;;;;;;5026160;28;20287;-71
2023/04/30 12:22:47;;;;;;;4.37;1.27;;;16.90;80.20;;;;;;5021347;28;20295;-71
2023/04/30 12:25:17;;;;;;;2.80;1.57;;;16.80;79.50;;;;;;5027543;28;20322;-72
2023/04/30 12:28:01;;;;;;;5.10;1.30;;;16.90;80.20;;;;;;5023222;28;20295;-72
2023/04/30 12:30:27;;;;;;;2.70;1.00;;;16.90;78.50;;;;;;5030951;28;20313;-72
2023/04/30 12:32:57;;;;;;;3.63;1.37;;;16.90;79.30;;;;;;5031121;28;20432;-72
2023/04/30 12:35:23;;;;;;;3.10;1.20;;;17.00;77.00;;;;;;5024570;28;20037;-72
2023/04/30 12:38:01;;;;;;;3.63;1.13;;;17.00;71.10;;;;;;5021602;28;20302;-72
2023/04/30 12:40:27;;;;;;;4.03;0.90;;;16.80;71.00;;;;;;5041029;28;20382;-72
2023/04/30 12:43:07;;;;;;;3.07;1.00;;;16.70;70.90;;;;;;5045348;28;20866;-72
2023/04/30 12:45:43;;;;;;;1.97;1.00;;;16.80;72.30;;;;;;5045141;28;20405;-72
2023/04/30 12:48:09;;;;;;;3.63;1.07;;;16.90;71.20;;;;;;5038364;28;20768;-72
2023/04/30 12:50:34;;;;;;;2.27;1.00;;;17.10;71.10;;;;;;5017002;28;20647;-72
2023/04/30 12:53:04;;;;;;;3.40;1.10;;;17.20;71.40;;;;;;5024866;28;20042;-72